createdAt,value
2022-09-10T00:01:53.617Z,17.14
2022-09-10T00:04:20.318Z,17.09
2022-09-10T00:06:47.070Z,17.10
2022-09-10T00:09:14.118Z,17.11
2022-09-10T00:11:41.833Z,17.11
2022-09-10T00:14:13.773Z,17.12
2022-09-10T00:16:41.041Z,17.10
2022-09-10T00:19:07.926Z,17.09
2022-09-10T00:21:35.796Z,17.01
2022-09-10T00:24:05.243Z,16.98
2022-09-10T00:26:35.485Z,16.85
2022-09-10T00:29:02.497Z,16.91
2022-09-10T00:31:30.565Z,16.99
2022-09-10T00:33:58.175Z,17.00
2022-09-10T00:36:27.390Z,16.98
2022-09-10T00:38:55.585Z,16.98
2022-09-10T00:41:24.271Z,16.97
2022-09-10T00:43:52.398Z,16.97
2022-09-10T00:46:43.569Z,16.90
2022-09-10T00:49:13.566Z,16.93
2022-09-10T00:51:40.561Z,16.99
2022-09-10T00:54:07.917Z,16.97
2022-09-10T00:56:35.129Z,16.92
2022-09-10T00:59:03.200Z,16.92
2022-09-10T01:01:31.078Z,16.88
2022-09-10T01:03:57.808Z,16.85
2022-09-10T01:06:24.822Z,16.81
2022-09-10T01:08:51.530Z,16.76
2022-09-10T01:11:42.736Z,16.72
2022-09-10T01:14:28.500Z,16.69
2022-09-10T01:17:22.997Z,16.66
2022-09-10T01:20:17.887Z,16.63
2022-09-10T01:22:57.720Z,16.57
2022-09-10T01:25:46.261Z,16.57
2022-09-10T01:28:23.233Z,16.53
2022-09-10T01:30:55.751Z,16.50
2022-09-10T01:33:26.961Z,16.53
2022-09-10T01:36:07.005Z,16.49
2022-09-10T01:38:35.920Z,16.46
2022-09-10T01:41:04.736Z,16.46
2022-09-10T01:43:36.653Z,16.45
2022-09-10T01:46:16.851Z,16.44
2022-09-10T01:49:02.770Z,16.42
2022-09-10T01:52:00.564Z,16.38
2022-09-10T01:55:00.245Z,16.35
2022-09-10T01:57:37.103Z,16.29
2022-09-10T02:00:11.636Z,16.30
2022-09-10T02:03:18.393Z,16.27
2022-09-10T02:05:49.659Z,16.25
2022-09-10T02:08:21.303Z,16.21
2022-09-10T02:10:55.434Z,16.18
2022-09-10T02:13:25.508Z,16.18
2022-09-10T02:16:32.136Z,16.16
2022-09-10T02:19:00.876Z,16.13
2022-09-10T02:21:27.970Z,16.08
2022-09-10T02:23:58.834Z,16.06
2022-09-10T02:26:26.078Z,16.02
2022-09-10T02:28:53.788Z,16.02
2022-09-10T02:31:22.622Z,15.99
2022-09-10T02:33:49.882Z,15.95
2022-09-10T02:36:16.826Z,15.98
2022-09-10T02:38:44.426Z,15.95
2022-09-10T02:41:11.260Z,15.90
2022-09-10T02:43:38.350Z,15.90
2022-09-10T02:46:08.638Z,15.91
2022-09-10T02:48:36.907Z,15.85
2022-09-10T02:51:03.893Z,15.87
2022-09-10T02:53:31.854Z,15.86
2022-09-10T02:56:03.320Z,15.82
2022-09-10T02:58:34.272Z,15.79
2022-09-10T03:01:18.375Z,15.78
2022-09-10T03:03:54.059Z,15.78
2022-09-10T03:06:21.991Z,15.78
2022-09-10T03:08:49.352Z,15.76
2022-09-10T03:11:16.780Z,15.73
2022-09-10T03:13:46.176Z,15.69
2022-09-10T03:16:13.960Z,15.66
2022-09-10T03:18:43.775Z,15.64
2022-09-10T03:21:16.219Z,15.64
2022-09-10T03:23:44.986Z,15.63
2022-09-10T03:26:14.398Z,15.64
2022-09-10T03:28:43.798Z,15.64
2022-09-10T03:31:13.851Z,15.63
2022-09-10T03:33:44.560Z,15.58
2022-09-10T03:36:13.524Z,15.61
2022-09-10T03:38:41.991Z,15.62
2022-09-10T03:41:09.195Z,15.57
2022-09-10T03:43:36.042Z,15.56
2022-09-10T03:46:06.782Z,15.55
2022-09-10T03:48:39.705Z,15.49
2022-09-10T03:51:08.372Z,15.47
2022-09-10T03:53:35.100Z,15.49
2022-09-10T03:56:03.555Z,15.50
2022-09-10T03:58:31.139Z,15.45
2022-09-10T04:00:58.555Z,15.47
2022-09-10T04:03:26.067Z,15.44
2022-09-10T04:05:52.850Z,15.41
2022-09-10T04:08:20.740Z,15.39
2022-09-10T04:10:48.396Z,15.34
2022-09-10T04:13:15.994Z,15.33
2022-09-10T04:15:45.574Z,15.30
2022-09-10T04:18:12.518Z,15.29
2022-09-10T04:20:39.591Z,15.30
2022-09-10T04:23:09.565Z,15.27
2022-09-10T04:25:38.310Z,15.31
2022-09-10T04:28:05.017Z,15.32
2022-09-10T04:30:32.706Z,15.35
2022-09-10T04:33:00.939Z,15.31
2022-09-10T04:35:30.759Z,15.27
2022-09-10T04:37:58.766Z,15.24
2022-09-10T04:40:27.361Z,15.19
2022-09-10T04:42:54.405Z,15.20
2022-09-10T04:45:21.690Z,15.22
2022-09-10T04:47:49.626Z,15.21
2022-09-10T04:50:20.462Z,15.17
2022-09-10T04:53:08.063Z,15.11
2022-09-10T04:55:36.882Z,15.14
2022-09-10T04:58:03.638Z,15.13
2022-09-10T05:00:30.379Z,15.16
2022-09-10T05:02:58.042Z,15.12
2022-09-10T05:05:25.221Z,15.08
2022-09-10T05:07:53.582Z,15.12
2022-09-10T05:10:21.580Z,15.20
2022-09-10T05:12:48.459Z,15.21
2022-09-10T05:15:15.328Z,15.18
2022-09-10T05:17:42.120Z,15.21
2022-09-10T05:20:09.164Z,15.25
2022-09-10T05:22:42.447Z,15.24
2022-09-10T05:25:09.681Z,15.24
2022-09-10T05:27:37.607Z,15.25
2022-09-10T05:30:05.909Z,15.28
2022-09-10T05:32:32.861Z,15.31
2022-09-10T05:34:59.817Z,15.34
2022-09-10T05:37:27.051Z,15.35
2022-09-10T05:39:53.950Z,15.37
2022-09-10T05:42:22.356Z,15.40
2022-09-10T05:44:49.354Z,15.42
2022-09-10T05:47:16.113Z,15.46
2022-09-10T05:49:43.325Z,15.47
2022-09-10T05:52:10.060Z,15.47
2022-09-10T05:54:36.841Z,15.52
2022-09-10T05:57:04.145Z,15.57
2022-09-10T05:59:30.865Z,15.52
2022-09-10T06:01:58.334Z,15.60
2022-09-10T06:04:25.724Z,15.67
2022-09-10T06:06:52.518Z,15.67
2022-09-10T06:09:20.688Z,15.67
2022-09-10T06:11:54.604Z,15.83
2022-09-10T06:14:22.368Z,15.89
2022-09-10T06:16:50.123Z,15.90
2022-09-10T06:19:17.128Z,15.95
2022-09-10T06:21:43.917Z,16.09
2022-09-10T06:24:10.781Z,16.10
2022-09-10T06:26:41.698Z,15.96
2022-09-10T06:29:12.601Z,16.13
2022-09-10T06:31:40.922Z,16.24
2022-09-10T06:34:07.989Z,16.24
2022-09-10T06:36:35.010Z,16.31
2022-09-10T06:39:03.659Z,16.34
2022-09-10T06:41:38.791Z,16.42
2022-09-10T06:44:10.839Z,16.43
2022-09-10T06:49:31.530Z,16.40
2022-09-10T06:51:58.545Z,16.50
2022-09-10T06:54:26.585Z,16.66
2022-09-10T06:56:58.237Z,16.49
2022-09-10T06:59:25.416Z,16.66
2022-09-10T07:01:52.272Z,16.78
2022-09-10T07:04:20.725Z,16.74
2022-09-10T07:06:49.319Z,16.75
2022-09-10T07:09:16.935Z,16.92
2022-09-10T07:11:57.529Z,16.87
2022-09-10T07:14:24.579Z,16.84
2022-09-10T07:16:53.525Z,16.80
2022-09-10T07:19:23.423Z,16.86
2022-09-10T07:21:50.810Z,17.01
2022-09-10T07:24:17.609Z,16.97
2022-09-10T07:27:16.600Z,17.08
2022-09-10T07:29:43.763Z,17.24
2022-09-10T07:32:15.097Z,17.38
2022-09-10T07:34:41.860Z,17.73
2022-09-10T07:37:09.132Z,18.04
2022-09-10T07:39:36.384Z,18.30
2022-09-10T07:42:03.131Z,18.61
2022-09-10T07:44:34.755Z,18.80
2022-09-10T07:47:03.508Z,19.13
2022-09-10T07:49:32.824Z,19.23
2022-09-10T07:52:00.197Z,19.72
2022-09-10T07:54:32.622Z,20.18
2022-09-10T07:57:00.497Z,20.50
2022-09-10T07:59:27.984Z,20.78
2022-09-10T08:02:00.564Z,20.98
2022-09-10T08:04:36.767Z,21.20
2022-09-10T08:07:07.270Z,21.45
2022-09-10T08:12:26.892Z,22.08
2022-09-10T08:14:59.937Z,22.23
2022-09-10T08:17:30.384Z,22.58
2022-09-10T08:19:57.761Z,22.95
2022-09-10T08:22:26.086Z,23.26
2022-09-10T08:24:57.127Z,23.51
2022-09-10T08:27:29.408Z,23.80
2022-09-10T08:29:57.745Z,24.11
2022-09-10T08:32:24.574Z,24.28
2022-09-10T08:34:52.667Z,24.46
2022-09-10T08:37:19.744Z,24.56
2022-09-10T08:39:47.823Z,24.90
2022-09-10T08:42:23.834Z,25.14
2022-09-10T08:44:54.659Z,25.17
2022-09-10T08:47:56.025Z,25.53
2022-09-10T08:50:28.147Z,25.66
2022-09-10T08:53:01.144Z,25.79
2022-09-10T08:55:32.024Z,25.94
2022-09-10T08:58:19.127Z,25.95
2022-09-10T09:00:54.787Z,26.25
2022-09-10T09:03:32.228Z,26.36
2022-09-10T09:06:05.758Z,26.54
2022-09-10T09:08:48.824Z,26.73
2022-09-10T09:11:44.892Z,26.87
2022-09-10T09:14:39.689Z,27.08
2022-09-10T09:17:43.937Z,27.15
2022-09-10T09:20:18.382Z,27.31
2022-09-10T09:23:03.629Z,27.16
2022-09-10T09:25:41.589Z,26.98
2022-09-10T09:28:15.453Z,26.84
2022-09-10T09:30:49.466Z,26.70
2022-09-10T09:33:21.233Z,26.46
2022-09-10T09:35:54.159Z,26.46
2022-09-10T09:38:25.179Z,26.41
2022-09-10T09:40:58.904Z,26.30
2022-09-10T09:43:36.597Z,26.37
2022-09-10T09:46:06.826Z,26.72
2022-09-10T09:48:40.984Z,26.91
2022-09-10T09:51:13.155Z,27.13
2022-09-10T09:53:42.351Z,27.36
2022-09-10T09:56:24.782Z,27.57
2022-09-10T09:58:52.346Z,27.69
2022-09-10T10:01:24.099Z,27.67
2022-09-10T10:04:03.132Z,27.93
2022-09-10T10:06:32.695Z,28.07
2022-09-10T10:09:02.201Z,27.90
2022-09-10T10:11:49.249Z,27.72
2022-09-10T10:14:32.571Z,27.45
2022-09-10T10:17:01.064Z,27.18
2022-09-10T10:19:34.471Z,26.94
2022-09-10T10:22:19.774Z,26.73
2022-09-10T10:24:49.538Z,26.65
2022-09-10T10:27:25.622Z,26.92
2022-09-10T10:30:07.723Z,27.21
2022-09-10T10:32:44.770Z,27.25
2022-09-10T10:35:29.762Z,27.65
2022-09-10T10:38:13.930Z,27.49
2022-09-10T10:40:50.923Z,27.14
2022-09-10T10:43:32.789Z,27.23
2022-09-10T10:46:12.030Z,27.65
2022-09-10T10:49:03.564Z,28.03
2022-09-10T10:52:00.483Z,28.46
2022-09-10T10:54:42.620Z,28.96
2022-09-10T10:57:12.185Z,29.32
2022-09-10T10:59:47.976Z,29.74
2022-09-10T11:02:53.266Z,30.13
2022-09-10T11:05:45.111Z,30.44
2022-09-10T11:08:19.555Z,30.70
2022-09-10T11:10:54.768Z,30.68
2022-09-10T11:13:24.628Z,30.78
2022-09-10T11:15:56.164Z,30.76
2022-09-10T11:18:25.230Z,30.91
2022-09-10T11:20:54.770Z,30.62
2022-09-10T11:23:29.055Z,30.49
2022-09-10T11:26:13.611Z,30.21
2022-09-10T11:29:08.082Z,30.35
2022-09-10T11:31:42.876Z,30.05
2022-09-10T11:34:33.091Z,30.31
2022-09-10T11:37:07.135Z,30.81
2022-09-10T11:39:35.731Z,31.37
2022-09-10T11:42:22.529Z,31.79
2022-09-10T11:45:19.781Z,31.68
2022-09-10T11:48:00.391Z,31.25
2022-09-10T11:50:38.135Z,30.71
2022-09-10T11:53:07.697Z,30.83
2022-09-10T11:55:58.165Z,31.26
2022-09-10T11:58:43.455Z,31.52
2022-09-10T12:01:19.396Z,31.76
2022-09-10T12:04:05.781Z,31.60
2022-09-10T12:07:10.795Z,31.40
2022-09-10T12:10:13.619Z,31.53
2022-09-10T12:12:53.419Z,30.89
2022-09-10T12:15:26.020Z,30.30
2022-09-10T12:18:00.055Z,30.32
2022-09-10T12:20:42.454Z,30.30
2022-09-10T12:23:18.138Z,30.00
2022-09-10T12:25:45.585Z,29.69
2022-09-10T12:28:45.852Z,29.33
2022-09-10T12:31:15.537Z,29.13
2022-09-10T12:33:42.609Z,29.42
2022-09-10T12:36:14.378Z,29.41
2022-09-10T12:39:18.844Z,29.53
2022-09-10T12:41:45.576Z,29.34
2022-09-10T12:44:27.619Z,29.23
2022-09-10T12:47:16.696Z,29.25
2022-09-10T12:49:48.315Z,29.21
2022-09-10T12:52:23.218Z,29.13
2022-09-10T12:55:18.761Z,29.02
2022-09-10T12:58:24.232Z,28.72
2022-09-10T13:00:54.066Z,28.63
2022-09-10T13:03:22.371Z,28.59
2022-09-10T13:05:53.384Z,28.64
2022-09-10T13:08:28.250Z,28.31
2022-09-10T13:11:02.543Z,28.02
2022-09-10T13:13:43.953Z,27.81
2022-09-10T13:16:38.388Z,27.44
2022-09-10T13:19:14.239Z,27.11
2022-09-10T13:21:41.361Z,26.87
2022-09-10T13:24:36.416Z,26.64
2022-09-10T13:27:03.396Z,26.32
2022-09-10T13:29:52.764Z,26.18
2022-09-10T13:32:34.754Z,25.98
2022-09-10T13:35:29.766Z,25.86
2022-09-10T13:38:08.909Z,25.65
2022-09-10T13:41:13.532Z,25.43
2022-09-10T13:44:01.353Z,25.39
2022-09-10T13:46:41.904Z,25.34
2022-09-10T13:49:19.896Z,25.30
2022-09-10T13:51:52.153Z,25.27
2022-09-10T13:54:40.008Z,25.29
2022-09-10T13:57:26.539Z,25.22
2022-09-10T14:00:11.493Z,25.24
2022-09-10T14:02:58.939Z,25.05
2022-09-10T14:05:26.739Z,25.08
2022-09-10T14:07:55.711Z,25.15
2022-09-10T14:10:22.669Z,25.15
2022-09-10T14:12:50.298Z,25.28
2022-09-10T14:15:20.666Z,25.32
2022-09-10T14:17:51.143Z,25.46
2022-09-10T14:20:18.667Z,25.20
2022-09-10T14:22:45.517Z,25.09
2022-09-10T14:25:37.401Z,25.12
2022-09-10T14:28:16.327Z,25.20
2022-09-10T14:30:44.488Z,25.24
2022-09-10T14:33:33.320Z,25.29
2022-09-10T14:36:33.867Z,25.08
2022-09-10T14:39:18.239Z,25.02
2022-09-10T14:41:45.613Z,24.96
2022-09-10T14:44:22.523Z,24.88
2022-09-10T14:46:57.489Z,24.70
2022-09-10T14:49:32.234Z,24.68
2022-09-10T14:51:59.981Z,24.67
2022-09-10T14:54:28.707Z,24.55
2022-09-10T14:57:02.556Z,24.44
2022-09-10T14:59:33.212Z,24.39
2022-09-10T15:02:01.462Z,24.25
2022-09-10T15:04:30.269Z,24.12
2022-09-10T15:06:58.472Z,24.00
2022-09-10T15:09:27.396Z,24.04
2022-09-10T15:12:06.469Z,24.00
2022-09-10T15:14:33.789Z,23.95
2022-09-10T15:17:01.031Z,23.77
2022-09-10T15:19:28.132Z,23.69
2022-09-10T15:21:57.731Z,23.68
2022-09-10T15:24:25.483Z,23.65
2022-09-10T15:26:52.724Z,23.67
2022-09-10T15:29:19.842Z,23.62
2022-09-10T15:31:47.199Z,23.61
2022-09-10T15:34:14.465Z,23.57
2022-09-10T15:36:42.068Z,23.51
2022-09-10T15:39:11.786Z,23.51
2022-09-10T15:41:43.161Z,23.49
2022-09-10T15:44:10.353Z,23.47
2022-09-10T15:46:40.833Z,23.33
2022-09-10T15:49:08.170Z,23.30
2022-09-10T15:51:34.931Z,23.29
2022-09-10T15:54:04.904Z,23.27
2022-09-10T15:56:32.727Z,23.16
2022-09-10T15:58:59.876Z,23.17
2022-09-10T16:01:29.004Z,23.14
2022-09-10T16:03:57.692Z,23.10
2022-09-10T16:06:27.517Z,23.05
2022-09-10T16:08:57.580Z,22.98
2022-09-10T16:11:25.356Z,22.90
2022-09-10T16:13:52.580Z,22.83
2022-09-10T16:16:23.930Z,22.77
2022-09-10T16:18:56.270Z,22.69
2022-09-10T16:21:26.276Z,22.62
2022-09-10T16:23:55.542Z,22.56
2022-09-10T16:26:24.573Z,22.50
2022-09-10T16:28:59.150Z,22.44
2022-09-10T16:31:28.465Z,22.38
2022-09-10T16:33:57.627Z,22.33
2022-09-10T16:36:25.128Z,22.28
2022-09-10T16:38:56.063Z,22.21
2022-09-10T16:41:23.813Z,22.15
2022-09-10T16:43:50.793Z,22.09
2022-09-10T16:46:18.301Z,22.07
2022-09-10T16:48:45.575Z,21.99
2022-09-10T16:51:14.408Z,21.95
2022-09-10T16:53:42.774Z,21.96
2022-09-10T16:56:12.859Z,21.92
2022-09-10T16:58:41.423Z,21.89
2022-09-10T17:01:09.556Z,21.84
2022-09-10T17:03:41.048Z,21.83
2022-09-10T17:06:15.035Z,21.79
2022-09-10T17:08:42.259Z,21.75
2022-09-10T17:11:10.011Z,21.73
2022-09-10T17:13:37.840Z,21.69
2022-09-10T17:16:16.837Z,21.71
2022-09-10T17:18:44.653Z,21.67
2022-09-10T17:21:11.731Z,21.61
2022-09-10T17:23:38.635Z,21.59
2022-09-10T17:26:06.808Z,21.55
2022-09-10T17:28:33.704Z,21.49
2022-09-10T17:31:00.769Z,21.44
2022-09-10T17:33:28.276Z,21.38
2022-09-10T17:35:56.848Z,21.33
2022-09-10T17:38:25.078Z,21.25
2022-09-10T17:41:01.513Z,21.19
2022-09-10T17:43:29.687Z,21.13
2022-09-10T17:45:56.492Z,21.05
2022-09-10T17:48:27.582Z,20.99
2022-09-10T17:50:55.068Z,20.95
2022-09-10T17:53:21.875Z,20.89
2022-09-10T17:55:48.711Z,20.84
2022-09-10T17:58:16.720Z,20.76
2022-09-10T18:00:48.875Z,20.71
2022-09-10T18:03:17.754Z,20.68
2022-09-10T18:05:46.245Z,20.65
2022-09-10T18:08:13.431Z,20.61
2022-09-10T18:10:40.439Z,20.55
2022-09-10T18:13:08.325Z,20.53
2022-09-10T18:15:40.417Z,20.49
2022-09-10T18:18:07.199Z,20.46
2022-09-10T18:20:33.966Z,20.42
2022-09-10T18:23:01.259Z,20.37
2022-09-10T18:25:32.145Z,20.33
2022-09-10T18:28:01.571Z,20.30
2022-09-10T18:30:29.438Z,20.27
2022-09-10T18:32:56.433Z,20.26
2022-09-10T18:35:23.792Z,20.20
2022-09-10T18:37:51.882Z,19.98
2022-09-10T18:40:19.785Z,20.05
2022-09-10T18:42:47.951Z,20.05
2022-09-10T18:45:14.823Z,20.05
2022-09-10T18:47:44.845Z,20.04
2022-09-10T18:50:13.346Z,20.02
2022-09-10T18:52:40.175Z,19.98
2022-09-10T18:55:07.320Z,19.97
2022-09-10T18:57:34.235Z,19.91
2022-09-10T19:00:01.286Z,19.88
2022-09-10T19:02:28.102Z,19.86
2022-09-10T19:05:10.760Z,19.81
2022-09-10T19:07:38.754Z,19.75
2022-09-10T19:10:07.257Z,19.74
2022-09-10T19:12:34.093Z,19.72
2022-09-10T19:15:01.023Z,19.71
2022-09-10T19:17:27.822Z,19.65
2022-09-10T19:19:54.663Z,19.60
2022-09-10T19:22:22.340Z,19.57
2022-09-10T19:24:56.534Z,19.57
2022-09-10T19:27:24.415Z,19.54
2022-09-10T19:29:52.046Z,19.50
2022-09-10T19:32:20.403Z,19.45
2022-09-10T19:34:52.082Z,19.39
2022-09-10T19:37:19.899Z,19.36
2022-09-10T19:39:47.704Z,19.32
2022-09-10T19:42:14.502Z,19.32
2022-09-10T19:44:41.183Z,19.31
2022-09-10T19:47:07.952Z,19.27
2022-09-10T19:49:34.628Z,19.24
2022-09-10T19:52:01.770Z,19.19
2022-09-10T19:54:30.488Z,19.16
2022-09-10T19:57:00.158Z,19.12
2022-09-10T19:59:27.039Z,19.11
2022-09-10T20:01:53.874Z,19.05
2022-09-10T20:04:21.349Z,19.05
2022-09-10T20:06:50.442Z,18.99
2022-09-10T20:09:17.350Z,18.99
2022-09-10T20:11:44.215Z,18.94
2022-09-10T20:14:13.622Z,18.92
2022-09-10T20:16:42.998Z,18.88
2022-09-10T20:19:11.365Z,18.84
2022-09-10T20:21:38.170Z,18.82
2022-09-10T20:24:07.279Z,18.79
2022-09-10T20:26:38.059Z,18.74
2022-09-10T20:29:12.276Z,18.73
2022-09-10T20:31:41.310Z,18.68
2022-09-10T20:34:14.246Z,18.67
2022-09-10T20:36:44.423Z,18.62
2022-09-10T20:39:16.368Z,18.59
2022-09-10T20:41:43.981Z,18.53
2022-09-10T20:44:13.167Z,18.49
2022-09-10T20:46:41.558Z,18.46
2022-09-10T20:49:10.511Z,18.42
2022-09-10T20:51:38.951Z,18.38
2022-09-10T20:54:08.309Z,18.40
2022-09-10T20:56:35.073Z,18.31
2022-09-10T20:59:02.122Z,18.30
2022-09-10T21:01:31.299Z,18.28
2022-09-10T21:03:59.575Z,18.26
2022-09-10T21:06:28.423Z,18.22
2022-09-10T21:08:57.980Z,18.19
2022-09-10T21:11:26.934Z,18.16
2022-09-10T21:13:56.124Z,18.13
2022-09-10T21:16:25.275Z,18.11
2022-09-10T21:18:54.886Z,18.07
2022-09-10T21:21:25.556Z,18.03
2022-09-10T21:24:19.697Z,18.02
2022-09-10T21:26:46.391Z,17.98
2022-09-10T21:29:18.527Z,17.94
2022-09-10T21:31:46.032Z,17.93
2022-09-10T21:34:13.845Z,17.89
2022-09-10T21:36:41.401Z,17.87
2022-09-10T21:39:12.787Z,17.84
2022-09-10T21:41:42.647Z,17.80
2022-09-10T21:44:14.567Z,17.79
2022-09-10T21:46:45.450Z,17.78
2022-09-10T21:49:13.057Z,17.75
2022-09-10T21:51:40.558Z,17.73
2022-09-10T21:54:07.786Z,17.69
2022-09-10T21:56:34.605Z,17.65
2022-09-10T21:59:01.463Z,17.66
2022-09-10T22:01:30.789Z,17.64
2022-09-10T22:04:00.602Z,17.63
2022-09-10T22:06:29.732Z,17.63
2022-09-10T22:08:58.563Z,17.62
2022-09-10T22:11:30.348Z,17.59
2022-09-10T22:14:02.398Z,17.56
2022-09-10T22:16:31.318Z,17.54
2022-09-10T22:19:00.488Z,17.54
2022-09-10T22:21:27.643Z,17.55
2022-09-10T22:23:54.457Z,17.56
2022-09-10T22:26:24.223Z,17.56
2022-09-10T22:28:54.782Z,17.57
2022-09-10T22:31:23.718Z,17.59
2022-09-10T22:33:59.072Z,17.59
2022-09-10T22:36:29.025Z,17.60
2022-09-10T22:39:06.665Z,17.63
2022-09-10T22:41:34.962Z,17.64
2022-09-10T22:44:02.623Z,17.64
2022-09-10T22:46:29.825Z,17.66
2022-09-10T22:48:56.795Z,17.66
2022-09-10T22:51:26.013Z,17.63
2022-09-10T22:53:53.635Z,17.68
2022-09-10T22:56:22.289Z,17.69
2022-09-10T22:58:52.323Z,17.69
2022-09-10T23:01:21.584Z,17.72
2022-09-10T23:03:48.652Z,17.75
2022-09-10T23:06:20.516Z,17.75
2022-09-10T23:08:50.489Z,17.78
2022-09-10T23:11:21.212Z,17.79
2022-09-10T23:13:54.025Z,17.81
2022-09-10T23:16:26.324Z,17.82
2022-09-10T23:18:55.228Z,17.83
2022-09-10T23:21:24.067Z,17.84
2022-09-10T23:23:53.705Z,17.85
2022-09-10T23:26:21.818Z,17.84
2022-09-10T23:28:48.939Z,17.86
2022-09-10T23:31:20.895Z,17.86
2022-09-10T23:33:59.246Z,17.87
2022-09-10T23:36:33.090Z,17.86
2022-09-10T23:39:00.636Z,17.87
2022-09-10T23:41:27.682Z,17.88
2022-09-10T23:43:54.730Z,17.86
2022-09-10T23:46:21.716Z,17.87
2022-09-10T23:48:49.501Z,17.87
2022-09-10T23:51:20.479Z,17.85
2022-09-10T23:53:48.357Z,17.85
2022-09-10T23:56:19.741Z,17.84
2022-09-10T23:58:47.804Z,17.84
